createdAt,value
2018-10-03T00:00:16.677Z,954.63
2018-10-03T00:01:16.663Z,954.75
2018-10-03T00:02:16.652Z,954.68
2018-10-03T00:03:16.636Z,954.73
2018-10-03T00:04:16.624Z,954.7
2018-10-03T00:05:16.662Z,954.73
2018-10-03T00:06:16.598Z,954.75
2018-10-03T00:07:16.586Z,954.65
2018-10-03T00:08:16.574Z,954.64
2018-10-03T00:09:16.561Z,954.69
2018-10-03T00:10:16.547Z,954.68
2018-10-03T00:11:16.535Z,954.63
2018-10-03T00:12:16.522Z,954.69
2018-10-03T00:13:16.508Z,954.68
2018-10-03T00:14:16.497Z,954.7
2018-10-03T00:15:16.484Z,954.65
2018-10-03T00:16:16.469Z,954.71
2018-10-03T00:17:16.456Z,954.69
2018-10-03T00:18:16.445Z,954.75
2018-10-03T00:19:16.433Z,954.73
2018-10-03T00:20:16.421Z,954.69
2018-10-03T00:21:16.407Z,954.7
2018-10-03T00:22:16.397Z,954.67
2018-10-03T00:23:16.396Z,954.67
2018-10-03T00:24:16.370Z,954.6
2018-10-03T00:25:16.362Z,954.65
2018-10-03T00:26:16.345Z,954.66
2018-10-03T00:27:16.332Z,954.67
2018-10-03T00:28:16.319Z,954.63
2018-10-03T00:29:16.307Z,954.61
2018-10-03T00:30:16.294Z,954.74
2018-10-03T00:31:16.282Z,954.68
2018-10-03T00:32:16.270Z,954.68
2018-10-03T00:33:16.256Z,954.75
2018-10-03T00:34:16.244Z,954.68
2018-10-03T00:35:16.231Z,954.68
2018-10-03T00:36:16.218Z,954.7
2018-10-03T00:37:16.207Z,954.66
2018-10-03T00:38:16.193Z,954.67
2018-10-03T00:39:16.181Z,954.65
2018-10-03T00:40:16.170Z,954.65
2018-10-03T00:41:16.157Z,954.68
2018-10-03T00:42:16.145Z,954.63
2018-10-03T00:43:16.132Z,954.76
2018-10-03T00:44:16.121Z,954.71
2018-10-03T00:45:16.107Z,954.66
2018-10-03T00:46:16.094Z,954.7
2018-10-03T00:47:16.082Z,954.73
2018-10-03T00:48:16.073Z,954.68
2018-10-03T00:49:16.058Z,954.72
2018-10-03T00:50:16.044Z,954.72
2018-10-03T00:51:16.033Z,954.69
2018-10-03T00:52:16.020Z,954.75
2018-10-03T00:53:16.007Z,954.7
2018-10-03T00:54:15.996Z,954.69
2018-10-03T00:55:15.984Z,954.7
2018-10-03T00:56:15.971Z,954.69
2018-10-03T00:57:15.960Z,954.7
2018-10-03T00:58:15.946Z,954.7
2018-10-03T00:59:15.935Z,954.66
2018-10-03T01:00:15.922Z,954.64
2018-10-03T01:01:15.912Z,954.65
2018-10-03T01:02:15.899Z,954.63
2018-10-03T01:03:15.886Z,954.57
2018-10-03T01:04:15.873Z,954.7
2018-10-03T01:05:15.861Z,954.7
2018-10-03T01:06:15.850Z,954.67
2018-10-03T01:07:15.838Z,954.63
2018-10-03T01:08:15.825Z,954.59
2018-10-03T01:09:15.813Z,954.65
2018-10-03T01:10:15.802Z,954.65
2018-10-03T01:11:15.788Z,954.56
2018-10-03T01:12:15.776Z,954.62
2018-10-03T01:13:15.764Z,954.66
2018-10-03T01:14:15.751Z,954.62
2018-10-03T01:15:15.744Z,954.69
2018-10-03T01:16:15.728Z,954.58
2018-10-03T01:17:15.715Z,954.54
2018-10-03T01:18:15.707Z,954.49
2018-10-03T01:19:15.691Z,954.56
2018-10-03T01:20:15.677Z,954.55
2018-10-03T01:21:15.666Z,954.57
2018-10-03T01:22:15.653Z,954.57
2018-10-03T01:23:15.646Z,954.7
2018-10-03T01:24:15.632Z,954.64
2018-10-03T01:25:15.617Z,954.61
2018-10-03T01:26:15.606Z,954.63
2018-10-03T01:27:15.595Z,954.62
2018-10-03T01:28:15.581Z,954.66
2018-10-03T01:29:15.569Z,954.63
2018-10-03T01:30:15.557Z,954.6
2018-10-03T01:31:15.543Z,954.63
2018-10-03T01:32:15.533Z,954.61
2018-10-03T01:33:15.519Z,954.61
2018-10-03T01:34:15.508Z,954.54
2018-10-03T01:35:15.496Z,954.58
2018-10-03T01:36:15.485Z,954.64
2018-10-03T01:37:15.470Z,954.63
2018-10-03T01:38:15.486Z,954.62
2018-10-03T01:39:15.450Z,954.62
2018-10-03T01:40:15.435Z,954.69
2018-10-03T01:41:15.422Z,954.67
2018-10-03T01:42:15.410Z,954.69
2018-10-03T01:43:15.398Z,954.67
2018-10-03T01:44:15.384Z,954.69
2018-10-03T01:45:15.372Z,954.69
2018-10-03T01:46:15.365Z,954.67
2018-10-03T01:47:15.347Z,954.67
2018-10-03T01:48:15.337Z,954.66
2018-10-03T01:49:15.323Z,954.71
2018-10-03T01:50:15.310Z,954.75
2018-10-03T01:51:15.297Z,954.74
2018-10-03T01:52:15.287Z,954.71
2018-10-03T01:53:15.278Z,954.63
2018-10-03T01:54:15.262Z,954.69
2018-10-03T01:55:15.251Z,954.75
2018-10-03T01:56:15.244Z,954.66
2018-10-03T01:57:15.233Z,954.69
2018-10-03T01:58:15.214Z,954.66
2018-10-03T01:59:15.202Z,954.7
2018-10-03T02:00:15.194Z,954.71
2018-10-03T02:01:15.180Z,954.74
2018-10-03T02:02:15.164Z,954.73
2018-10-03T02:03:15.152Z,954.71
2018-10-03T02:04:15.140Z,954.78
2018-10-03T02:05:15.128Z,954.79
2018-10-03T02:06:15.116Z,954.76
2018-10-03T02:07:15.103Z,954.73
2018-10-03T02:08:15.092Z,954.83
2018-10-03T02:09:15.080Z,954.76
2018-10-03T02:10:15.067Z,954.77
2018-10-03T02:11:15.054Z,954.88
2018-10-03T02:12:15.043Z,954.82
2018-10-03T02:13:15.031Z,954.76
2018-10-03T02:14:15.019Z,954.83
2018-10-03T02:15:15.027Z,954.85
2018-10-03T02:16:14.992Z,954.8
2018-10-03T02:17:14.986Z,954.86
2018-10-03T02:18:14.970Z,954.85
2018-10-03T02:19:14.960Z,954.86
2018-10-03T02:20:14.944Z,954.88
2018-10-03T02:21:14.943Z,954.86
2018-10-03T02:22:14.921Z,954.82
2018-10-03T02:23:14.909Z,954.83
2018-10-03T02:24:14.896Z,954.83
2018-10-03T02:25:14.884Z,954.8
2018-10-03T02:26:14.873Z,954.85
2018-10-03T02:27:14.860Z,954.82
2018-10-03T02:28:14.848Z,954.8
2018-10-03T02:29:14.836Z,954.84
2018-10-03T02:30:14.826Z,954.82
2018-10-03T02:31:14.813Z,954.89
2018-10-03T02:32:14.799Z,954.91
2018-10-03T02:33:14.794Z,954.87
2018-10-03T02:34:14.778Z,954.82
2018-10-03T02:35:14.764Z,954.87
2018-10-03T02:36:14.753Z,954.84
2018-10-03T02:37:14.742Z,954.84
2018-10-03T02:38:14.728Z,954.83
2018-10-03T02:39:14.717Z,954.84
2018-10-03T02:40:14.705Z,954.85
2018-10-03T02:41:14.698Z,954.86
2018-10-03T02:42:14.685Z,954.86
2018-10-03T02:43:14.669Z,954.85
2018-10-03T02:44:14.657Z,954.8
2018-10-03T02:45:14.646Z,954.86
2018-10-03T02:46:14.633Z,954.92
2018-10-03T02:47:14.620Z,954.88
2018-10-03T02:48:14.610Z,954.93
2018-10-03T02:49:14.599Z,954.87
2018-10-03T02:50:14.586Z,954.9
2018-10-03T02:51:14.573Z,954.88
2018-10-03T02:52:14.563Z,954.87
2018-10-03T02:53:14.549Z,954.91
2018-10-03T02:54:14.538Z,954.97
2018-10-03T02:55:14.527Z,954.9
2018-10-03T02:56:14.514Z,954.96
2018-10-03T02:57:14.502Z,954.97
2018-10-03T02:58:14.489Z,954.94
2018-10-03T02:59:14.480Z,955.02
2018-10-03T03:00:14.472Z,954.98
2018-10-03T03:01:14.455Z,955.01
2018-10-03T03:02:14.444Z,955.03
2018-10-03T03:03:14.433Z,955
2018-10-03T03:04:14.421Z,955
2018-10-03T03:05:14.407Z,955
2018-10-03T03:06:14.397Z,955
2018-10-03T03:07:14.385Z,955.01
2018-10-03T03:08:14.372Z,954.99
2018-10-03T03:09:14.360Z,955.06
2018-10-03T03:10:14.349Z,955.09
2018-10-03T03:11:14.335Z,955.05
2018-10-03T03:12:14.324Z,955.07
2018-10-03T03:13:14.313Z,955.08
2018-10-03T03:14:14.303Z,955.06
2018-10-03T03:15:14.290Z,955.07
2018-10-03T03:16:14.278Z,955.1
2018-10-03T03:17:14.266Z,955.12
2018-10-03T03:18:14.256Z,955.11
2018-10-03T03:19:14.243Z,955.08
2018-10-03T03:20:14.234Z,955.1
2018-10-03T03:21:14.218Z,955.16
2018-10-03T03:22:14.206Z,955.19
2018-10-03T03:23:14.196Z,955.18
2018-10-03T03:24:14.183Z,955.23
2018-10-03T03:25:14.172Z,955.21
2018-10-03T03:26:14.161Z,955.17
2018-10-03T03:27:14.150Z,955.19
2018-10-03T03:28:14.137Z,955.09
2018-10-03T03:29:14.126Z,955.14
2018-10-03T03:30:14.114Z,955.2
2018-10-03T03:31:14.102Z,955.21
2018-10-03T03:32:14.093Z,955.17
2018-10-03T03:33:14.080Z,955.17
2018-10-03T03:34:14.068Z,955.15
2018-10-03T03:35:14.060Z,955.14
2018-10-03T03:36:14.044Z,955.18
2018-10-03T03:37:14.032Z,955.13
2018-10-03T03:38:14.029Z,955.15
2018-10-03T03:39:14.025Z,955.11
2018-10-03T03:40:13.997Z,955.11
2018-10-03T03:41:13.985Z,955.15
2018-10-03T03:42:13.973Z,955.08
2018-10-03T03:43:13.964Z,955.03
2018-10-03T03:44:13.951Z,955.09
2018-10-03T03:45:13.941Z,955.05
2018-10-03T03:46:13.927Z,955.1
2018-10-03T03:47:13.916Z,955
2018-10-03T03:48:13.904Z,955.07
2018-10-03T03:49:13.892Z,955.12
2018-10-03T03:50:13.881Z,955.15
2018-10-03T03:51:13.870Z,955.15
2018-10-03T03:52:13.859Z,955.2
2018-10-03T03:53:13.847Z,955.16
2018-10-03T03:54:13.835Z,955.17
2018-10-03T03:55:13.823Z,955.15
2018-10-03T03:56:13.812Z,955.05
2018-10-03T03:57:13.804Z,955.11
2018-10-03T03:58:13.789Z,955.12
2018-10-03T03:59:13.777Z,955.12
2018-10-03T04:00:13.766Z,955.16
2018-10-03T04:01:13.754Z,955.13
2018-10-03T04:02:13.742Z,955.15
2018-10-03T04:03:13.734Z,955.13
2018-10-03T04:04:13.721Z,955.2
2018-10-03T04:05:13.707Z,955.23
2018-10-03T04:06:13.697Z,955.22
2018-10-03T04:07:13.717Z,955.17
2018-10-03T04:08:13.674Z,955.22
2018-10-03T04:09:13.661Z,955.25
2018-10-03T04:10:13.650Z,955.24
2018-10-03T04:11:13.639Z,955.18
2018-10-03T04:12:13.626Z,955.21
2018-10-03T04:13:13.615Z,955.22
2018-10-03T04:14:13.604Z,955.23
2018-10-03T04:15:13.591Z,955.24
2018-10-03T04:16:13.580Z,955.23
2018-10-03T04:17:13.569Z,955.25
2018-10-03T04:18:13.557Z,955.25
2018-10-03T04:19:13.546Z,955.34
2018-10-03T04:20:13.535Z,955.3
2018-10-03T04:21:13.522Z,955.34
2018-10-03T04:22:13.511Z,955.33
2018-10-03T04:23:13.499Z,955.31
2018-10-03T04:24:13.487Z,955.27
2018-10-03T04:25:13.476Z,955.3
2018-10-03T04:26:13.463Z,955.28
2018-10-03T04:27:13.454Z,955.32
2018-10-03T04:28:13.440Z,955.34
2018-10-03T04:29:13.429Z,955.37
2018-10-03T04:30:13.418Z,955.36
2018-10-03T04:31:13.407Z,955.43
2018-10-03T04:32:13.394Z,955.36
2018-10-03T04:33:13.383Z,955.38
2018-10-03T04:34:13.378Z,955.42
2018-10-03T04:35:13.361Z,955.41
2018-10-03T04:36:13.366Z,955.37
2018-10-03T04:37:13.338Z,955.44
2018-10-03T04:38:13.325Z,955.43
2018-10-03T04:39:13.313Z,955.42
2018-10-03T04:40:13.301Z,955.48
2018-10-03T04:41:13.290Z,955.46
2018-10-03T04:42:13.330Z,955.46
2018-10-03T04:43:13.266Z,955.47
2018-10-03T04:44:13.255Z,955.5
2018-10-03T04:45:13.244Z,955.47
2018-10-03T04:46:13.230Z,955.55
2018-10-03T04:47:13.221Z,955.51
2018-10-03T04:48:13.209Z,955.49
2018-10-03T04:49:13.207Z,955.55
2018-10-03T04:50:13.184Z,955.56
2018-10-03T04:51:13.173Z,955.53
2018-10-03T04:52:13.163Z,955.57
2018-10-03T04:53:13.150Z,955.6
2018-10-03T04:54:13.138Z,955.62
2018-10-03T04:55:13.126Z,955.65
2018-10-03T04:56:13.115Z,955.69
2018-10-03T04:57:13.103Z,955.64
2018-10-03T04:58:13.091Z,955.71
2018-10-03T04:59:13.081Z,955.65
2018-10-03T05:00:13.069Z,955.67
2018-10-03T05:01:13.058Z,955.67
2018-10-03T05:02:13.045Z,955.65
2018-10-03T05:03:13.034Z,955.69
2018-10-03T05:04:13.022Z,955.73
2018-10-03T05:05:13.010Z,955.76
2018-10-03T05:06:13.000Z,955.79
2018-10-03T05:07:12.987Z,955.78
2018-10-03T05:08:12.975Z,955.82
2018-10-03T05:09:12.963Z,955.77
2018-10-03T05:10:12.952Z,955.87
2018-10-03T05:11:13.003Z,955.9
2018-10-03T05:12:12.928Z,955.9
2018-10-03T05:13:12.916Z,955.91
2018-10-03T05:14:12.905Z,955.84
2018-10-03T05:15:12.897Z,955.98
2018-10-03T05:16:12.893Z,955.91
2018-10-03T05:17:12.869Z,955.89
2018-10-03T05:18:12.857Z,956.02
2018-10-03T05:19:12.845Z,956.05
2018-10-03T05:20:12.837Z,956
2018-10-03T05:21:12.821Z,956.04
2018-10-03T05:22:12.810Z,956.04
2018-10-03T05:23:12.797Z,956.08
2018-10-03T05:24:12.786Z,956.13
2018-10-03T05:25:12.774Z,956.19
2018-10-03T05:26:12.762Z,956.03
2018-10-03T05:27:12.750Z,956.11
2018-10-03T05:28:12.739Z,956.15
2018-10-03T05:29:12.727Z,956.12
2018-10-03T05:30:12.720Z,956.13
2018-10-03T05:31:12.702Z,956.17
2018-10-03T05:32:12.692Z,956.21
2018-10-03T05:33:12.687Z,956.29
2018-10-03T05:34:12.668Z,956.21
2018-10-03T05:35:12.656Z,956.18
2018-10-03T05:36:12.644Z,956.21
2018-10-03T05:37:12.631Z,956.38
2018-10-03T05:38:12.621Z,956.33
2018-10-03T05:39:12.609Z,956.29
2018-10-03T05:40:12.600Z,956.34
2018-10-03T05:41:12.584Z,956.41
2018-10-03T05:42:12.573Z,956.38
2018-10-03T05:43:12.561Z,956.35
2018-10-03T05:44:12.549Z,956.4
2018-10-03T05:45:12.538Z,956.38
2018-10-03T05:46:12.525Z,956.37
2018-10-03T05:47:12.517Z,956.44
2018-10-03T05:48:12.505Z,956.41
2018-10-03T05:49:12.489Z,956.48
2018-10-03T05:50:12.479Z,956.5
2018-10-03T05:51:12.466Z,956.49
2018-10-03T05:52:12.454Z,956.52
2018-10-03T05:53:12.446Z,956.54
2018-10-03T05:54:12.430Z,956.54
2018-10-03T05:55:12.419Z,956.54
2018-10-03T05:56:12.409Z,956.5
2018-10-03T05:57:12.395Z,956.56
2018-10-03T05:58:12.383Z,956.56
2018-10-03T05:59:12.371Z,956.56
2018-10-03T06:00:12.366Z,956.6
2018-10-03T06:01:12.347Z,956.57
2018-10-03T06:02:12.340Z,956.5
2018-10-03T06:03:12.324Z,956.5
2018-10-03T06:04:12.312Z,956.58
2018-10-03T06:05:12.300Z,956.59
2018-10-03T06:06:12.290Z,956.65
2018-10-03T06:07:12.276Z,956.68
2018-10-03T06:08:12.266Z,956.66
2018-10-03T06:09:12.257Z,956.68
2018-10-03T06:10:12.266Z,956.63
2018-10-03T06:11:12.306Z,956.71
2018-10-03T06:12:12.258Z,956.76
2018-10-03T06:13:12.206Z,956.72
2018-10-03T06:14:12.192Z,956.73
2018-10-03T06:15:12.182Z,956.73
2018-10-03T06:16:12.170Z,956.73
2018-10-03T06:17:12.165Z,956.8
2018-10-03T06:18:12.146Z,956.8
2018-10-03T06:19:12.137Z,956.78
2018-10-03T06:20:12.123Z,956.78
2018-10-03T06:21:12.113Z,956.81
2018-10-03T06:22:12.103Z,956.82
2018-10-03T06:23:12.090Z,956.84
2018-10-03T06:24:12.079Z,956.82
2018-10-03T06:25:12.064Z,956.88
2018-10-03T06:26:12.053Z,956.96
2018-10-03T06:27:12.042Z,956.98
2018-10-03T06:28:12.049Z,957
2018-10-03T06:29:12.018Z,957.04
2018-10-03T06:30:12.007Z,956.96
2018-10-03T06:31:11.999Z,957.05
2018-10-03T06:32:11.984Z,957.04
2018-10-03T06:33:11.971Z,957
2018-10-03T06:34:11.960Z,957
2018-10-03T06:35:11.949Z,957.03
2018-10-03T06:36:11.935Z,957.08
2018-10-03T06:37:11.925Z,957.05
2018-10-03T06:38:11.912Z,957.1
2018-10-03T06:39:11.940Z,957.1
2018-10-03T06:40:11.912Z,957.11
2018-10-03T06:41:11.881Z,957.15
2018-10-03T06:42:11.868Z,957.18
2018-10-03T06:43:11.856Z,957.18
2018-10-03T06:44:11.844Z,957.2
2018-10-03T06:45:11.833Z,957.17
2018-10-03T06:46:11.829Z,957.26
2018-10-03T06:47:11.809Z,957.3
2018-10-03T06:48:11.802Z,957.2
2018-10-03T06:49:11.787Z,957.23
2018-10-03T06:50:11.774Z,957.25
2018-10-03T06:51:11.764Z,957.23
2018-10-03T06:52:11.751Z,957.22
2018-10-03T06:53:11.742Z,957.25
2018-10-03T06:54:11.730Z,957.21
2018-10-03T06:55:11.718Z,957.24
2018-10-03T06:56:11.708Z,957.29
2018-10-03T06:57:11.696Z,957.25
2018-10-03T06:58:11.685Z,957.24
2018-10-03T06:59:11.674Z,957.26
2018-10-03T07:00:11.667Z,957.23
2018-10-03T07:01:11.654Z,957.23
2018-10-03T07:02:11.638Z,957.3
2018-10-03T07:03:11.627Z,957.3
2018-10-03T07:04:11.617Z,957.34
2018-10-03T07:05:11.604Z,957.32
2018-10-03T07:06:11.593Z,957.35
2018-10-03T07:07:11.583Z,957.39
2018-10-03T07:08:11.574Z,957.41
2018-10-03T07:09:11.560Z,957.41
2018-10-03T07:10:11.549Z,957.42
2018-10-03T07:11:11.537Z,957.41
2018-10-03T07:12:11.525Z,957.47
2018-10-03T07:13:11.627Z,957.52
2018-10-03T07:14:11.503Z,957.47
2018-10-03T07:15:11.492Z,957.53
2018-10-03T07:16:11.481Z,957.49
2018-10-03T07:17:11.470Z,957.53
2018-10-03T07:18:11.459Z,957.46
2018-10-03T07:19:11.449Z,957.45
2018-10-03T07:20:11.465Z,957.39
2018-10-03T07:21:11.425Z,957.42
2018-10-03T07:22:11.421Z,957.42
2018-10-03T07:23:11.403Z,957.41
2018-10-03T07:24:11.392Z,957.35
2018-10-03T07:25:11.381Z,957.4
2018-10-03T07:26:11.397Z,957.39
2018-10-03T07:27:11.359Z,957.45
2018-10-03T07:28:11.348Z,957.41
2018-10-03T07:29:11.336Z,957.43
2018-10-03T07:30:11.327Z,957.46
2018-10-03T07:31:11.315Z,957.47
2018-10-03T07:32:11.306Z,957.45
2018-10-03T07:33:11.294Z,957.47
2018-10-03T07:34:11.281Z,957.46
2018-10-03T07:35:11.275Z,957.46
2018-10-03T07:36:11.261Z,957.45
2018-10-03T07:37:11.250Z,957.46
2018-10-03T07:38:11.239Z,957.44
2018-10-03T07:39:11.229Z,957.45
2018-10-03T07:40:11.218Z,957.44
2018-10-03T07:41:11.206Z,957.43
2018-10-03T07:42:11.196Z,957.47
2018-10-03T07:43:11.186Z,957.48
2018-10-03T07:44:11.257Z,957.44
2018-10-03T07:45:11.164Z,957.48
2018-10-03T07:46:11.152Z,957.45
2018-10-03T07:47:11.142Z,957.48
2018-10-03T07:48:11.242Z,957.44
2018-10-03T07:49:11.119Z,957.49
2018-10-03T07:50:11.110Z,957.5
2018-10-03T07:51:11.099Z,957.49
2018-10-03T07:52:11.092Z,957.48
2018-10-03T07:53:11.080Z,957.51
2018-10-03T07:54:11.068Z,957.53
2018-10-03T07:55:11.057Z,957.57
2018-10-03T07:56:11.099Z,957.53
2018-10-03T07:57:11.034Z,957.55
2018-10-03T07:58:11.024Z,957.56
2018-10-03T07:59:11.113Z,957.58
2018-10-03T08:00:11.004Z,957.52
2018-10-03T08:01:10.991Z,957.57
2018-10-03T08:02:10.981Z,957.6
2018-10-03T08:03:10.970Z,957.6
2018-10-03T08:04:10.958Z,957.63
2018-10-03T08:05:10.949Z,957.69
2018-10-03T08:06:10.937Z,957.76
2018-10-03T08:07:10.926Z,957.72
2018-10-03T08:08:10.915Z,957.78
2018-10-03T08:09:10.904Z,957.75
2018-10-03T08:10:10.894Z,957.78
2018-10-03T08:11:10.882Z,957.78
2018-10-03T08:12:10.872Z,957.79
2018-10-03T08:13:10.861Z,957.86
2018-10-03T08:14:10.853Z,957.83
2018-10-03T08:15:10.841Z,957.84
2018-10-03T08:16:10.829Z,957.86
2018-10-03T08:17:10.867Z,957.92
2018-10-03T08:18:10.808Z,957.85
2018-10-03T08:19:10.798Z,957.93
2018-10-03T08:20:10.787Z,958
2018-10-03T08:21:10.774Z,958.02
2018-10-03T08:22:10.772Z,958.02
2018-10-03T08:23:10.754Z,958.03
2018-10-03T08:24:10.742Z,957.98
2018-10-03T08:25:10.730Z,958.08
2018-10-03T08:26:10.721Z,958.07
2018-10-03T08:27:10.709Z,958.11
2018-10-03T08:28:10.699Z,958.12
2018-10-03T08:29:10.689Z,958.2
2018-10-03T08:30:10.718Z,958.24
2018-10-03T08:31:10.667Z,958.08
2018-10-03T08:32:10.681Z,958.22
2018-10-03T08:33:10.691Z,958.18
2018-10-03T08:34:10.633Z,958.14
2018-10-03T08:35:10.624Z,958.09
2018-10-03T08:36:10.613Z,958.16
2018-10-03T08:37:10.601Z,958.22
2018-10-03T08:38:10.591Z,958.11
2018-10-03T08:39:10.581Z,958.08
2018-10-03T08:40:10.568Z,958.12
2018-10-03T08:41:10.559Z,958.13
2018-10-03T08:42:10.547Z,958.2
2018-10-03T08:43:10.538Z,958.21
2018-10-03T08:44:10.533Z,958.09
2018-10-03T08:45:10.521Z,958.12
2018-10-03T08:46:10.508Z,958.15
2018-10-03T08:47:10.496Z,958.11
2018-10-03T08:48:10.491Z,958.05
2018-10-03T08:49:10.477Z,958.16
2018-10-03T08:50:10.467Z,958.06
2018-10-03T08:51:10.455Z,958.03
2018-10-03T08:52:10.448Z,958.02
2018-10-03T08:53:10.437Z,958.07
2018-10-03T08:54:10.428Z,958.05
2018-10-03T08:55:10.416Z,958.06
2018-10-03T08:56:10.415Z,957.97
2018-10-03T08:57:10.397Z,957.99
2018-10-03T08:58:10.478Z,958.05
2018-10-03T08:59:10.376Z,957.98
2018-10-03T09:00:10.369Z,958.01
2018-10-03T09:01:10.357Z,958.07
2018-10-03T09:02:10.348Z,957.93
2018-10-03T09:03:10.337Z,958.05
2018-10-03T09:04:10.329Z,958.09
2018-10-03T09:05:10.320Z,958.06
2018-10-03T09:06:10.312Z,958.11
2018-10-03T09:07:10.300Z,958.1
2018-10-03T09:08:10.294Z,958.11
2018-10-03T09:09:10.281Z,958.09
2018-10-03T09:10:10.272Z,958.07
2018-10-03T09:11:10.262Z,958.14
2018-10-03T09:12:10.252Z,958.21
2018-10-03T09:13:10.244Z,958.13
2018-10-03T09:14:10.234Z,958.12
2018-10-03T09:15:10.224Z,958.13
2018-10-03T09:16:10.215Z,958.15
2018-10-03T09:17:10.204Z,958.12
2018-10-03T09:18:10.197Z,958.12
2018-10-03T09:19:10.186Z,958.14
2018-10-03T09:20:10.176Z,958.18
2018-10-03T09:21:10.180Z,958.25
2018-10-03T09:22:10.161Z,958.2
2018-10-03T09:23:10.147Z,958.16
2018-10-03T09:24:10.138Z,958.19
2018-10-03T09:25:10.129Z,958.31
2018-10-03T09:26:10.120Z,958.26
2018-10-03T09:27:10.109Z,958.23
2018-10-03T09:28:10.102Z,958.32
2018-10-03T09:29:10.091Z,958.26
2018-10-03T09:30:10.081Z,958.21
2018-10-03T09:31:10.070Z,958.17
2018-10-03T09:32:10.062Z,958.25
2018-10-03T09:33:10.053Z,958.25
2018-10-03T09:34:10.046Z,958.24
2018-10-03T09:35:10.034Z,958.32
2018-10-03T09:36:10.023Z,958.28
2018-10-03T09:37:10.013Z,958.34
2018-10-03T09:38:10.008Z,958.35
2018-10-03T09:39:09.993Z,958.4
2018-10-03T09:40:09.983Z,958.33
2018-10-03T09:41:09.975Z,958.36
2018-10-03T09:42:09.963Z,958.36
2018-10-03T09:43:09.961Z,958.35
2018-10-03T09:44:09.946Z,958.31
2018-10-03T09:45:09.935Z,958.36
2018-10-03T09:46:09.924Z,958.38
2018-10-03T09:47:09.915Z,958.42
2018-10-03T09:48:09.904Z,958.47
2018-10-03T09:49:09.895Z,958.47
2018-10-03T09:50:09.885Z,958.51
2018-10-03T09:51:09.877Z,958.56
2018-10-03T09:52:09.868Z,958.53
2018-10-03T09:53:09.856Z,958.59
2018-10-03T09:54:09.850Z,958.56
2018-10-03T09:55:09.839Z,958.52
2018-10-03T09:56:09.830Z,958.49
2018-10-03T09:57:09.821Z,958.51
2018-10-03T09:58:09.811Z,958.53
2018-10-03T09:59:09.802Z,958.57
2018-10-03T10:00:09.792Z,958.57
2018-10-03T10:01:09.783Z,958.51
2018-10-03T10:02:09.776Z,958.55
2018-10-03T10:03:09.765Z,958.53
2018-10-03T10:04:09.755Z,958.52
2018-10-03T10:05:09.746Z,958.59
2018-10-03T10:06:09.740Z,958.63
2018-10-03T10:07:09.728Z,958.66
2018-10-03T10:08:09.719Z,958.6
2018-10-03T10:09:09.710Z,958.77
2018-10-03T10:10:09.704Z,958.77
2018-10-03T10:11:09.770Z,958.74
2018-10-03T10:12:09.683Z,958.74
2018-10-03T10:13:09.674Z,958.7
2018-10-03T10:14:09.665Z,958.7
2018-10-03T10:15:09.660Z,958.72
2018-10-03T10:16:09.646Z,958.75
2018-10-03T10:17:09.637Z,958.8
2018-10-03T10:18:09.628Z,958.8
2018-10-03T10:19:09.619Z,958.88
2018-10-03T10:20:09.613Z,958.86
2018-10-03T10:21:09.602Z,958.86
2018-10-03T10:22:09.592Z,958.88
2018-10-03T10:23:09.583Z,958.96
2018-10-03T10:24:09.574Z,958.91
2018-10-03T10:25:09.565Z,958.93
2018-10-03T10:26:09.557Z,958.95
2018-10-03T10:27:09.548Z,958.88
2018-10-03T10:28:09.539Z,958.89
2018-10-03T10:29:09.530Z,958.85
2018-10-03T10:30:09.528Z,958.91
2018-10-03T10:31:09.513Z,958.91
2018-10-03T10:32:09.625Z,958.9
2018-10-03T10:33:09.642Z,958.95
2018-10-03T10:34:09.487Z,958.96
2018-10-03T10:35:09.478Z,958.98
2018-10-03T10:36:09.472Z,958.98
2018-10-03T10:37:09.458Z,958.96
2018-10-03T10:38:09.453Z,958.97
2018-10-03T10:39:09.444Z,958.99
2018-10-03T10:40:09.487Z,958.99
2018-10-03T10:41:09.553Z,958.91
2018-10-03T10:42:09.417Z,958.98
2018-10-03T10:43:09.428Z,958.96
2018-10-03T10:44:09.400Z,958.92
2018-10-03T10:45:09.392Z,958.97
2018-10-03T10:46:09.384Z,959.03
2018-10-03T10:47:09.375Z,958.95
2018-10-03T10:48:09.365Z,959.09
2018-10-03T10:49:09.357Z,959.04
2018-10-03T10:50:09.363Z,959.05
2018-10-03T10:51:09.342Z,959.04
2018-10-03T10:52:09.333Z,959.02
2018-10-03T10:53:09.328Z,959.07
2018-10-03T10:54:09.318Z,959.12
2018-10-03T10:55:09.310Z,959.1
2018-10-03T10:56:09.301Z,959.13
2018-10-03T10:57:09.294Z,959.04
2018-10-03T10:58:09.286Z,959.1
2018-10-03T10:59:09.277Z,959.14
2018-10-03T11:00:09.270Z,959.07
2018-10-03T11:01:09.263Z,959.07
2018-10-03T11:02:09.254Z,959.16
2018-10-03T11:03:09.245Z,959.08
2018-10-03T11:04:09.237Z,959.1
2018-10-03T11:05:09.231Z,959.05
2018-10-03T11:06:09.252Z,959.2
2018-10-03T11:07:09.215Z,959.25
2018-10-03T11:08:09.207Z,959.2
2018-10-03T11:09:09.198Z,959.25
2018-10-03T11:10:09.190Z,959.25
2018-10-03T11:11:09.183Z,959.3
2018-10-03T11:12:09.173Z,959.32
2018-10-03T11:13:09.167Z,959.31
2018-10-03T11:14:09.157Z,959.25
2018-10-03T11:15:09.148Z,959.34
2018-10-03T11:16:09.141Z,959.3
2018-10-03T11:17:09.140Z,959.25
2018-10-03T11:18:09.125Z,959.28
2018-10-03T11:19:09.116Z,959.27
2018-10-03T11:20:09.107Z,959.31
2018-10-03T11:21:09.098Z,959.27
2018-10-03T11:22:09.089Z,959.25
2018-10-03T11:23:09.081Z,959.24
2018-10-03T11:24:09.177Z,959.29
2018-10-03T11:25:09.065Z,959.25
2018-10-03T11:26:09.055Z,959.23
2018-10-03T11:27:09.047Z,959.21
2018-10-03T11:28:09.038Z,959.19
2018-10-03T11:29:09.030Z,959.12
2018-10-03T11:30:09.028Z,959.09
2018-10-03T11:31:09.013Z,959.12
2018-10-03T11:32:09.105Z,959.11
2018-10-03T11:33:08.997Z,959.13
2018-10-03T11:34:08.988Z,959.1
2018-10-03T11:35:08.979Z,959.16
2018-10-03T11:36:08.971Z,959.13
2018-10-03T11:37:08.961Z,959.09
2018-10-03T11:38:08.998Z,959.08
2018-10-03T11:39:08.945Z,959.15
2018-10-03T11:40:08.940Z,959.15
2018-10-03T11:41:08.928Z,959.18
2018-10-03T11:42:08.921Z,959.08
2018-10-03T11:43:08.911Z,959.13
2018-10-03T11:44:08.903Z,959.16
2018-10-03T11:45:08.896Z,959.12
2018-10-03T11:46:08.887Z,959.11
2018-10-03T11:47:08.878Z,959.16
2018-10-03T11:48:08.874Z,959.16
2018-10-03T11:49:08.864Z,959.1
2018-10-03T11:50:08.856Z,959.17
2018-10-03T11:51:08.851Z,959.15
2018-10-03T11:52:08.839Z,959.12
2018-10-03T11:53:08.832Z,959.08
2018-10-03T11:54:08.824Z,959.1
2018-10-03T11:55:08.816Z,959.16
2018-10-03T11:56:08.808Z,959.14
2018-10-03T11:57:08.902Z,959.16
2018-10-03T11:58:08.792Z,959.22
2018-10-03T11:59:08.783Z,959.25
2018-10-03T12:00:08.776Z,959.2
2018-10-03T12:01:08.769Z,959.17
2018-10-03T12:02:08.759Z,959.16
2018-10-03T12:03:08.805Z,959.14
2018-10-03T12:04:08.745Z,959.19
2018-10-03T12:05:08.737Z,959.21
2018-10-03T12:06:08.729Z,959.13
2018-10-03T12:07:08.722Z,959.17
2018-10-03T12:08:08.713Z,959.14
2018-10-03T12:09:08.722Z,959.11
2018-10-03T12:10:08.697Z,959.09
2018-10-03T12:11:08.689Z,959.09
2018-10-03T12:12:08.681Z,959.15
2018-10-03T12:13:08.680Z,959.13
2018-10-03T12:14:08.666Z,959.23
2018-10-03T12:15:08.658Z,959.21
2018-10-03T12:16:08.649Z,959.28
2018-10-03T12:17:08.643Z,959.22
2018-10-03T12:18:08.635Z,959.21
2018-10-03T12:19:08.675Z,959.24
2018-10-03T12:20:08.618Z,959.25
2018-10-03T12:21:08.613Z,959.22
2018-10-03T12:22:08.605Z,959.25
2018-10-03T12:23:08.596Z,959.29
2018-10-03T12:24:08.589Z,959.28
2018-10-03T12:25:08.653Z,959.23
2018-10-03T12:26:08.575Z,959.19
2018-10-03T12:27:08.569Z,959.21
2018-10-03T12:28:08.563Z,959.26
2018-10-03T12:29:08.559Z,959.2
2018-10-03T12:30:08.545Z,959.22
2018-10-03T12:31:08.540Z,959.27